createdAt,value
2017-07-27T00:02:26.639Z,89.80
2017-07-27T00:04:55.122Z,89.80
2017-07-27T00:07:22.680Z,90.00
2017-07-27T00:09:50.358Z,90.20
2017-07-27T00:12:17.967Z,90.30
2017-07-27T00:14:45.516Z,90.40
2017-07-27T00:17:13.254Z,90.70
2017-07-27T00:19:40.817Z,90.70
2017-07-27T00:22:08.356Z,90.60
2017-07-27T00:24:35.964Z,90.50
2017-07-27T00:27:03.517Z,89.70
2017-07-27T00:29:31.048Z,89.60
2017-07-27T00:31:58.635Z,89.10
2017-07-27T00:34:26.170Z,88.90
2017-07-27T00:36:53.708Z,88.90
2017-07-27T00:39:21.298Z,89.20
2017-07-27T00:41:48.837Z,90.00
2017-07-27T00:44:16.337Z,90.20
2017-07-27T00:46:44.663Z,90.40
2017-07-27T00:49:12.602Z,90.40
2017-07-27T00:51:40.132Z,90.40
2017-07-27T00:54:07.686Z,90.30
2017-07-27T00:56:35.233Z,90.10
2017-07-27T00:59:02.690Z,90.00
2017-07-27T01:01:30.280Z,89.20
2017-07-27T01:03:58.258Z,90.00
2017-07-27T01:06:25.817Z,90.00
2017-07-27T01:08:54.112Z,90.00
2017-07-27T01:11:21.671Z,90.00
2017-07-27T01:13:49.268Z,90.00
2017-07-27T01:16:17.040Z,90.10
2017-07-27T01:18:44.569Z,90.40
2017-07-27T01:21:12.098Z,90.60
2017-07-27T01:23:39.649Z,90.80
2017-07-27T01:26:07.199Z,91.00
2017-07-27T01:28:34.740Z,91.20
2017-07-27T01:31:02.317Z,91.10
2017-07-27T01:33:29.828Z,91.20
2017-07-27T01:35:57.363Z,91.20
2017-07-27T01:38:24.895Z,91.20
2017-07-27T01:40:52.453Z,91.10
2017-07-27T01:43:20.000Z,91.00
2017-07-27T01:45:48.491Z,91.00
2017-07-27T01:48:16.020Z,91.00
2017-07-27T01:50:43.565Z,90.90
2017-07-27T01:53:11.867Z,90.90
2017-07-27T01:55:39.431Z,90.90
2017-07-27T01:58:06.944Z,90.80
2017-07-27T02:00:34.529Z,90.90
2017-07-27T02:03:02.062Z,90.90
2017-07-27T02:05:29.574Z,90.90
2017-07-27T02:07:57.315Z,90.90
2017-07-27T02:10:24.868Z,90.90
2017-07-27T02:12:52.421Z,91.00
2017-07-27T02:15:20.025Z,90.90
2017-07-27T02:17:47.560Z,91.00
2017-07-27T02:20:15.105Z,90.90
2017-07-27T02:22:42.681Z,91.00
2017-07-27T02:25:10.225Z,91.00
2017-07-27T02:27:37.760Z,91.00
2017-07-27T02:30:05.343Z,90.80
2017-07-27T02:32:32.897Z,90.90
2017-07-27T02:35:00.439Z,91.00
2017-07-27T02:37:27.978Z,91.00
2017-07-27T02:39:55.511Z,90.90
2017-07-27T02:42:23.102Z,90.90
2017-07-27T02:44:50.676Z,91.00
2017-07-27T02:47:18.201Z,90.90
2017-07-27T02:49:45.719Z,90.90
2017-07-27T02:52:13.358Z,90.90
2017-07-27T02:54:41.654Z,91.00
2017-07-27T02:57:09.176Z,91.00
2017-07-27T02:59:36.756Z,91.00
2017-07-27T03:02:04.326Z,91.00
2017-07-27T03:04:31.946Z,91.00
2017-07-27T03:06:59.526Z,91.10
2017-07-27T03:09:27.032Z,91.00
2017-07-27T03:11:54.545Z,91.00
2017-07-27T03:14:22.864Z,91.00
2017-07-27T03:16:50.340Z,91.00
2017-07-27T03:19:17.903Z,91.00
2017-07-27T03:21:45.504Z,91.00
2017-07-27T03:24:13.030Z,91.00
2017-07-27T03:26:40.536Z,91.10
2017-07-27T03:29:08.282Z,91.00
2017-07-27T03:31:35.831Z,91.00
2017-07-27T03:34:03.330Z,91.00
2017-07-27T03:36:30.884Z,91.00
2017-07-27T03:38:58.417Z,91.00
2017-07-27T03:41:25.975Z,90.90
2017-07-27T03:43:53.572Z,90.90
2017-07-27T03:46:21.133Z,91.00
2017-07-27T03:48:48.693Z,91.00
2017-07-27T03:51:16.271Z,91.00
2017-07-27T03:53:43.837Z,91.00
2017-07-27T03:56:11.362Z,91.00
2017-07-27T03:58:38.960Z,91.00
2017-07-27T04:01:06.537Z,91.00
2017-07-27T04:03:34.104Z,91.10
2017-07-27T04:06:01.681Z,91.00
2017-07-27T04:08:29.223Z,91.00
2017-07-27T04:10:56.747Z,91.00
2017-07-27T04:13:24.481Z,91.00
2017-07-27T04:15:51.994Z,91.00
2017-07-27T04:18:19.552Z,90.90
2017-07-27T04:20:47.132Z,90.90
2017-07-27T04:23:14.731Z,90.90
2017-07-27T04:25:42.290Z,90.90
2017-07-27T04:28:10.642Z,90.90
2017-07-27T04:30:38.164Z,90.90
2017-07-27T04:33:05.735Z,91.00
2017-07-27T04:35:33.313Z,90.90
2017-07-27T04:38:00.845Z,90.80
2017-07-27T04:40:28.757Z,90.80
2017-07-27T04:42:56.329Z,90.80
2017-07-27T04:45:24.589Z,90.70
2017-07-27T04:47:52.145Z,90.70
2017-07-27T04:50:19.735Z,90.70
2017-07-27T04:52:47.314Z,90.70
2017-07-27T04:55:14.867Z,90.70
2017-07-27T04:57:54.249Z,90.60
2017-07-27T05:00:21.814Z,90.50
2017-07-27T05:02:49.363Z,90.40
2017-07-27T05:05:17.107Z,90.10
2017-07-27T05:07:44.652Z,90.00
2017-07-27T05:10:12.230Z,90.00
2017-07-27T05:12:39.829Z,89.70
2017-07-27T05:15:07.417Z,89.60
2017-07-27T05:17:34.933Z,89.50
2017-07-27T05:20:02.691Z,89.20
2017-07-27T05:22:30.251Z,89.00
2017-07-27T05:24:57.818Z,89.00
2017-07-27T05:27:25.417Z,89.20
2017-07-27T05:29:52.933Z,89.30
2017-07-27T05:32:20.483Z,89.00
2017-07-27T05:34:48.014Z,89.50
2017-07-27T05:37:15.570Z,89.50
2017-07-27T05:39:43.102Z,89.40
2017-07-27T05:42:10.719Z,89.30
2017-07-27T05:44:38.273Z,89.20
2017-07-27T05:47:05.866Z,89.40
2017-07-27T05:49:33.611Z,89.80
2017-07-27T05:52:01.125Z,89.60
2017-07-27T05:54:28.708Z,89.20
2017-07-27T05:56:56.313Z,89.20
2017-07-27T05:59:23.833Z,89.00
2017-07-27T06:01:51.454Z,88.50
2017-07-27T06:04:19.057Z,88.50
2017-07-27T06:06:46.560Z,88.40
2017-07-27T06:09:14.132Z,88.70
2017-07-27T06:11:41.725Z,88.80
2017-07-27T06:14:09.275Z,88.40
2017-07-27T06:16:36.854Z,88.30
2017-07-27T06:19:04.405Z,88.30
2017-07-27T06:21:31.965Z,87.50
2017-07-27T06:23:59.498Z,87.20
2017-07-27T06:26:27.094Z,87.20
2017-07-27T06:28:54.637Z,86.50
2017-07-27T06:31:22.241Z,85.30
2017-07-27T06:33:49.851Z,84.20
2017-07-27T06:36:17.417Z,83.10
2017-07-27T06:38:45.212Z,83.70
2017-07-27T06:41:13.327Z,82.80
2017-07-27T06:43:41.689Z,83.30
2017-07-27T06:46:09.207Z,83.20
2017-07-27T06:48:36.764Z,83.10
2017-07-27T06:51:04.275Z,82.90
2017-07-27T06:53:32.501Z,82.40
2017-07-27T06:56:00.116Z,81.20
2017-07-27T06:58:27.690Z,81.70
2017-07-27T07:00:55.262Z,80.60
2017-07-27T07:03:22.851Z,80.30
2017-07-27T07:05:50.466Z,80.40
2017-07-27T07:08:18.067Z,79.20
2017-07-27T07:10:45.673Z,78.40
2017-07-27T07:13:13.244Z,78.20
2017-07-27T07:15:40.836Z,77.20
2017-07-27T07:18:08.467Z,74.30
2017-07-27T07:20:36.025Z,71.60
2017-07-27T07:23:04.358Z,68.00
2017-07-27T07:25:31.935Z,67.90
2017-07-27T07:27:59.454Z,69.30
2017-07-27T07:30:27.013Z,70.10
2017-07-27T07:32:54.613Z,69.80
2017-07-27T07:35:22.163Z,69.50
2017-07-27T07:37:49.729Z,70.00
2017-07-27T07:40:17.332Z,70.20
2017-07-27T07:42:44.885Z,70.50
2017-07-27T07:45:12.493Z,71.30
2017-07-27T07:47:40.247Z,71.80
2017-07-27T07:50:07.794Z,73.70
2017-07-27T07:52:35.394Z,74.00
2017-07-27T07:55:02.914Z,73.10
2017-07-27T07:57:30.714Z,71.20
2017-07-27T07:59:58.277Z,70.90
2017-07-27T08:05:19.066Z,69.40
2017-07-27T08:07:46.825Z,69.50
2017-07-27T08:10:23.322Z,68.90
2017-07-27T08:12:51.084Z,66.60
2017-07-27T08:15:18.638Z,66.60
2017-07-27T08:17:46.207Z,67.20
2017-07-27T08:20:13.924Z,67.20
2017-07-27T08:22:41.500Z,66.60
2017-07-27T08:25:09.058Z,66.40
2017-07-27T08:27:36.646Z,65.60
2017-07-27T08:30:04.244Z,66.40
2017-07-27T08:32:31.829Z,65.40
2017-07-27T08:35:07.873Z,63.90
2017-07-27T08:37:35.417Z,63.30
2017-07-27T08:40:03.766Z,64.80
2017-07-27T08:42:31.389Z,64.10
2017-07-27T08:44:58.962Z,64.20
2017-07-27T08:47:28.777Z,64.00
2017-07-27T08:49:57.471Z,65.70
2017-07-27T08:52:25.013Z,65.70
2017-07-27T08:54:52.555Z,64.60
2017-07-27T08:57:20.281Z,64.80
2017-07-27T08:59:47.802Z,63.80
2017-07-27T09:02:15.489Z,64.70
2017-07-27T09:04:43.379Z,63.60
2017-07-27T09:07:11.038Z,62.60
2017-07-27T09:09:38.604Z,62.70
2017-07-27T09:12:06.348Z,64.50
2017-07-27T09:14:33.937Z,64.10
2017-07-27T09:17:01.497Z,64.40
2017-07-27T09:19:29.854Z,63.90
2017-07-27T09:21:57.434Z,63.90
2017-07-27T09:24:25.830Z,64.80
2017-07-27T09:26:53.430Z,61.90
2017-07-27T09:29:20.951Z,63.70
2017-07-27T09:31:48.496Z,62.50
2017-07-27T09:34:17.047Z,64.60
2017-07-27T09:36:44.866Z,62.30
2017-07-27T09:39:12.390Z,63.00
2017-07-27T09:41:40.243Z,59.30
2017-07-27T09:44:07.773Z,56.30
2017-07-27T09:46:35.476Z,55.40
2017-07-27T09:49:03.109Z,53.10
2017-07-27T09:51:30.648Z,51.80
2017-07-27T09:53:58.228Z,46.90
2017-07-27T09:56:26.021Z,47.40
2017-07-27T09:58:53.738Z,46.30
2017-07-27T10:01:22.434Z,46.70
2017-07-27T10:03:50.077Z,48.40
2017-07-27T10:06:18.256Z,48.40
2017-07-27T10:08:46.969Z,49.10
2017-07-27T10:11:14.558Z,50.30
2017-07-27T10:13:42.121Z,50.40
2017-07-27T10:16:09.799Z,48.60
2017-07-27T10:18:37.386Z,46.60
2017-07-27T10:21:05.043Z,47.10
2017-07-27T10:23:32.663Z,47.00
2017-07-27T10:26:00.461Z,47.50
2017-07-27T10:28:28.887Z,39.60
2017-07-27T10:30:56.561Z,39.50
2017-07-27T10:33:24.223Z,39.60
2017-07-27T10:35:51.817Z,39.00
2017-07-27T10:38:20.137Z,37.80
2017-07-27T10:40:47.663Z,37.80
2017-07-27T10:43:16.012Z,40.30
2017-07-27T10:45:44.442Z,38.60
2017-07-27T10:48:12.889Z,38.60
2017-07-27T10:50:40.506Z,38.30
2017-07-27T10:53:08.377Z,39.20
2017-07-27T10:55:36.112Z,41.50
2017-07-27T10:58:04.748Z,45.10
2017-07-27T11:00:32.255Z,45.30
2017-07-27T11:02:59.892Z,44.90
2017-07-27T11:05:30.447Z,45.10
2017-07-27T11:07:58.252Z,46.50
2017-07-27T11:10:25.792Z,47.20
2017-07-27T11:12:53.364Z,47.70
2017-07-27T11:15:21.174Z,46.20
2017-07-27T11:17:48.798Z,45.70
2017-07-27T11:20:16.360Z,45.40
2017-07-27T11:22:43.927Z,44.00
2017-07-27T11:25:11.553Z,45.80
2017-07-27T11:27:39.127Z,44.80
2017-07-27T11:30:06.696Z,45.90
2017-07-27T11:32:34.335Z,44.40
2017-07-27T11:35:02.214Z,42.40
2017-07-27T11:37:29.992Z,43.20
2017-07-27T11:39:57.619Z,42.40
2017-07-27T11:42:25.267Z,42.20
2017-07-27T11:44:53.830Z,41.80
2017-07-27T11:47:22.183Z,42.80
2017-07-27T11:49:50.914Z,42.80
2017-07-27T11:52:18.738Z,44.60
2017-07-27T11:54:46.489Z,44.40
2017-07-27T11:57:14.034Z,44.10
2017-07-27T11:59:41.592Z,45.30
2017-07-27T12:02:09.145Z,43.20
2017-07-27T12:04:36.776Z,44.60
2017-07-27T12:07:04.382Z,45.20
2017-07-27T12:09:32.176Z,46.00
2017-07-27T12:11:59.725Z,46.60
2017-07-27T12:14:27.363Z,47.90
2017-07-27T12:16:55.023Z,49.10
2017-07-27T12:19:22.617Z,51.50
2017-07-27T12:21:50.289Z,52.30
2017-07-27T12:24:18.110Z,52.30
2017-07-27T12:26:45.717Z,53.30
2017-07-27T12:29:13.299Z,53.60
2017-07-27T12:31:41.011Z,54.90
2017-07-27T12:34:08.612Z,56.40
2017-07-27T12:36:36.201Z,55.20
2017-07-27T12:39:04.815Z,53.70
2017-07-27T12:41:32.447Z,54.50
2017-07-27T12:44:00.049Z,51.00
2017-07-27T12:46:27.948Z,50.20
2017-07-27T12:48:55.636Z,49.10
2017-07-27T12:51:30.211Z,48.20
2017-07-27T12:53:57.782Z,48.20
2017-07-27T12:56:25.370Z,48.60
2017-07-27T12:58:52.949Z,51.00
2017-07-27T13:01:20.517Z,51.80
2017-07-27T13:03:48.054Z,50.60
2017-07-27T13:06:15.688Z,50.70
2017-07-27T13:08:46.666Z,50.90
2017-07-27T13:11:14.258Z,52.20
2017-07-27T13:13:41.893Z,52.90
2017-07-27T13:16:09.447Z,55.10
2017-07-27T13:18:37.105Z,55.30
2017-07-27T13:21:05.073Z,56.40
2017-07-27T13:23:32.756Z,57.00
2017-07-27T13:26:00.701Z,56.90
2017-07-27T13:28:28.331Z,58.20
2017-07-27T13:30:55.922Z,59.20
2017-07-27T13:33:23.529Z,58.70
2017-07-27T13:35:51.169Z,58.00
2017-07-27T13:38:18.796Z,58.30
2017-07-27T13:40:46.403Z,58.10
2017-07-27T13:43:15.215Z,58.20
2017-07-27T13:45:42.776Z,58.90
2017-07-27T13:48:10.728Z,58.90
2017-07-27T13:50:39.573Z,59.60
2017-07-27T13:53:08.407Z,60.50
2017-07-27T13:55:41.685Z,59.10
2017-07-27T13:58:11.051Z,60.00
2017-07-27T14:00:39.285Z,59.70
2017-07-27T14:03:10.437Z,59.60
2017-07-27T14:05:38.291Z,62.40
2017-07-27T14:08:05.905Z,64.40
2017-07-27T14:10:33.562Z,66.10
2017-07-27T14:13:01.379Z,66.40
2017-07-27T14:15:29.706Z,67.80
2017-07-27T14:17:57.447Z,68.70
2017-07-27T14:20:25.297Z,69.00
2017-07-27T14:22:52.929Z,69.20
2017-07-27T14:25:20.705Z,69.10
2017-07-27T14:27:48.438Z,70.20
2017-07-27T14:30:16.141Z,69.50
2017-07-27T14:32:43.826Z,67.70
2017-07-27T14:35:11.493Z,69.00
2017-07-27T14:37:39.163Z,66.40
2017-07-27T14:40:07.630Z,65.70
2017-07-27T14:42:35.266Z,65.60
2017-07-27T14:45:03.786Z,64.60
2017-07-27T14:47:31.648Z,64.60
2017-07-27T14:49:59.367Z,65.40
2017-07-27T14:52:26.940Z,66.00
2017-07-27T14:54:55.429Z,66.80
2017-07-27T14:57:23.986Z,66.50
2017-07-27T14:59:51.679Z,67.40
2017-07-27T15:02:19.382Z,68.50
2017-07-27T15:04:47.134Z,68.70
2017-07-27T15:07:14.711Z,68.10
2017-07-27T15:09:42.707Z,67.60
2017-07-27T15:12:10.297Z,67.00
2017-07-27T15:14:37.975Z,66.60
2017-07-27T15:17:05.875Z,66.40
2017-07-27T15:19:33.535Z,65.70
2017-07-27T15:22:01.572Z,66.10
2017-07-27T15:24:29.814Z,65.80
2017-07-27T15:26:57.679Z,65.20
2017-07-27T15:29:25.342Z,65.40
2017-07-27T15:31:53.677Z,66.50
2017-07-27T15:34:21.813Z,66.80
2017-07-27T15:36:49.641Z,68.00
2017-07-27T15:39:17.523Z,68.70
2017-07-27T15:41:45.160Z,69.50
2017-07-27T15:44:12.716Z,71.00
2017-07-27T15:46:40.394Z,72.40
2017-07-27T15:49:08.088Z,73.20
2017-07-27T15:51:35.927Z,74.40
2017-07-27T15:54:03.747Z,75.30
2017-07-27T15:56:35.160Z,76.80
2017-07-27T15:59:02.964Z,77.90
2017-07-27T16:01:30.710Z,79.20
2017-07-27T16:03:58.606Z,79.20
2017-07-27T16:06:26.511Z,80.40
2017-07-27T16:08:54.559Z,80.70
2017-07-27T16:11:22.266Z,80.50
2017-07-27T16:13:49.831Z,81.10
2017-07-27T16:16:17.446Z,80.50
2017-07-27T16:18:45.753Z,77.30
2017-07-27T16:21:13.297Z,77.20
2017-07-27T16:23:41.016Z,76.40
2017-07-27T16:26:08.643Z,74.70
2017-07-27T16:28:36.261Z,74.60
2017-07-27T16:31:04.763Z,75.30
2017-07-27T16:33:32.453Z,74.60
2017-07-27T16:36:00.215Z,74.80
2017-07-27T16:38:28.191Z,74.70
2017-07-27T16:40:55.966Z,74.60
2017-07-27T16:43:23.590Z,73.50
2017-07-27T16:45:51.342Z,73.10
2017-07-27T16:48:19.982Z,73.30
2017-07-27T16:50:47.630Z,73.90
2017-07-27T16:53:15.598Z,74.20
2017-07-27T16:55:43.349Z,74.40
2017-07-27T16:58:10.981Z,74.20
2017-07-27T17:00:38.757Z,73.90
2017-07-27T17:03:06.331Z,73.60
2017-07-27T17:05:33.931Z,74.10
2017-07-27T17:08:01.535Z,74.80
2017-07-27T17:10:29.104Z,74.80
2017-07-27T17:12:56.732Z,74.90
2017-07-27T17:15:24.369Z,75.90
2017-07-27T17:17:51.903Z,76.70
2017-07-27T17:20:19.493Z,77.40
2017-07-27T17:22:47.207Z,78.20
2017-07-27T17:25:14.831Z,78.80
2017-07-27T17:27:42.442Z,80.00
2017-07-27T17:30:10.044Z,80.00
2017-07-27T17:32:38.289Z,80.70
2017-07-27T17:35:05.971Z,81.60
2017-07-27T17:37:34.264Z,83.10
2017-07-27T17:40:01.877Z,84.30
2017-07-27T17:42:30.666Z,85.00
2017-07-27T17:45:00.297Z,85.70
2017-07-27T17:47:27.880Z,86.70
2017-07-27T17:49:55.556Z,86.70
2017-07-27T17:52:23.290Z,87.30
2017-07-27T17:54:50.890Z,87.90
2017-07-27T17:57:18.494Z,88.60
2017-07-27T17:59:46.288Z,89.40
2017-07-27T18:02:13.913Z,89.30
2017-07-27T18:04:41.535Z,89.10
2017-07-27T18:07:09.303Z,89.30
2017-07-27T18:09:37.584Z,88.80
2017-07-27T18:12:05.279Z,88.80
2017-07-27T18:14:32.888Z,88.70
2017-07-27T18:17:00.959Z,89.70
2017-07-27T18:19:28.560Z,90.00
2017-07-27T18:21:56.302Z,90.20
2017-07-27T18:24:23.866Z,89.70
2017-07-27T18:26:51.512Z,90.10
2017-07-27T18:29:23.776Z,90.00
2017-07-27T18:31:53.017Z,90.60
2017-07-27T18:34:20.680Z,90.50
2017-07-27T18:36:50.204Z,90.30
2017-07-27T18:39:17.717Z,90.30
2017-07-27T18:41:45.340Z,90.20
2017-07-27T18:44:15.177Z,90.50
2017-07-27T18:46:42.894Z,90.40
2017-07-27T18:49:10.503Z,90.50
2017-07-27T18:51:48.231Z,90.50
2017-07-27T18:54:15.850Z,90.50
2017-07-27T18:57:12.080Z,90.70
2017-07-27T19:13:26.466Z,90.60
2017-07-27T19:15:54.115Z,91.20
2017-07-27T19:18:22.487Z,91.10
2017-07-27T19:20:50.246Z,91.10
2017-07-27T19:23:17.827Z,91.30
2017-07-27T19:25:45.424Z,90.80
2017-07-27T19:28:13.094Z,91.10
2017-07-27T19:30:40.966Z,91.20
2017-07-27T19:33:08.574Z,91.30
2017-07-27T19:35:37.228Z,91.40
2017-07-27T19:38:04.999Z,91.30
2017-07-27T19:40:32.646Z,91.30
2017-07-27T19:43:00.590Z,91.30
2017-07-27T19:45:28.971Z,91.20
2017-07-27T19:47:57.575Z,91.40
2017-07-27T19:50:25.164Z,91.50
2017-07-27T19:52:52.726Z,91.60
2017-07-27T19:55:21.803Z,91.60
2017-07-27T19:57:49.502Z,91.70
2017-07-27T20:00:17.092Z,91.60
2017-07-27T20:02:44.802Z,91.70
2017-07-27T20:05:12.765Z,91.60
2017-07-27T20:07:40.373Z,91.60
2017-07-27T20:10:07.985Z,91.60
2017-07-27T20:12:35.630Z,91.60
2017-07-27T20:15:03.300Z,91.60
2017-07-27T20:17:31.193Z,91.50
2017-07-27T20:20:00.591Z,91.90
2017-07-27T20:22:28.355Z,91.60
2017-07-27T20:24:55.942Z,91.40
2017-07-27T20:27:23.541Z,91.50
2017-07-27T20:29:51.122Z,91.50
2017-07-27T20:32:18.745Z,91.60
2017-07-27T20:34:46.533Z,91.60
2017-07-27T20:37:14.098Z,91.70
2017-07-27T20:39:41.711Z,91.80
2017-07-27T20:42:09.422Z,91.80
2017-07-27T20:44:37.031Z,91.80
2017-07-27T20:47:05.809Z,91.90
2017-07-27T20:49:33.447Z,91.80
2017-07-27T20:52:01.097Z,91.90
2017-07-27T20:54:29.271Z,91.90
2017-07-27T20:56:57.931Z,91.90
2017-07-27T20:59:26.319Z,91.90
2017-07-27T21:01:53.934Z,91.90
2017-07-27T21:04:22.505Z,92.00
2017-07-27T21:06:51.026Z,92.00
2017-07-27T21:09:18.616Z,92.00
2017-07-27T21:11:46.967Z,91.90
2017-07-27T21:14:14.567Z,92.00
2017-07-27T21:16:42.166Z,91.80
2017-07-27T21:19:09.824Z,91.90
2017-07-27T21:21:37.441Z,91.90
2017-07-27T21:24:05.009Z,91.90
2017-07-27T21:26:32.639Z,92.00
2017-07-27T21:29:00.194Z,92.00
2017-07-27T21:31:27.767Z,91.90
2017-07-27T21:33:55.394Z,91.90
2017-07-27T21:36:23.643Z,92.00
2017-07-27T21:38:51.228Z,92.00
2017-07-27T21:41:18.960Z,92.00
2017-07-27T21:43:46.570Z,92.10
2017-07-27T21:46:14.159Z,92.20
2017-07-27T21:48:41.891Z,92.30
2017-07-27T21:51:09.455Z,92.40
2017-07-27T21:53:36.973Z,92.50
2017-07-27T21:56:04.557Z,92.70
2017-07-27T21:58:32.110Z,92.80
2017-07-27T22:01:00.443Z,92.90
2017-07-27T22:03:28.029Z,92.90
2017-07-27T22:05:55.585Z,92.90
2017-07-27T22:08:23.120Z,93.00
2017-07-27T22:10:50.723Z,92.90
2017-07-27T22:13:18.353Z,92.90
2017-07-27T22:15:45.979Z,92.90
2017-07-27T22:18:13.527Z,92.80
2017-07-27T22:20:41.947Z,92.90
2017-07-27T22:23:09.476Z,92.90
2017-07-27T22:25:37.155Z,92.90
2017-07-27T22:28:04.694Z,92.80
2017-07-27T22:30:33.335Z,92.90
2017-07-27T22:33:01.218Z,92.90
2017-07-27T22:35:28.836Z,92.80
2017-07-27T22:37:56.411Z,92.90
2017-07-27T22:40:23.974Z,92.90
2017-07-27T22:42:51.547Z,92.80
2017-07-27T22:45:19.134Z,92.80
2017-07-27T22:47:46.718Z,92.70
2017-07-27T22:50:14.224Z,92.70
2017-07-27T22:52:41.786Z,92.70
2017-07-27T22:55:09.521Z,92.60
2017-07-27T22:57:37.040Z,92.70
2017-07-27T23:00:04.612Z,92.70
2017-07-27T23:02:32.422Z,92.60
2017-07-27T23:05:04.123Z,92.60
2017-07-27T23:07:31.700Z,92.60
2017-07-27T23:09:59.329Z,92.60
2017-07-27T23:12:26.889Z,92.60
2017-07-27T23:14:54.480Z,92.60
2017-07-27T23:17:22.031Z,92.60
2017-07-27T23:19:49.592Z,92.60
2017-07-27T23:22:17.862Z,92.50
2017-07-27T23:24:45.457Z,92.50
2017-07-27T23:27:13.034Z,92.50
2017-07-27T23:29:40.612Z,92.40
2017-07-27T23:32:08.206Z,92.70
2017-07-27T23:34:35.795Z,92.40
2017-07-27T23:37:03.375Z,92.50
2017-07-27T23:39:30.995Z,92.40
2017-07-27T23:41:58.548Z,92.50
2017-07-27T23:44:26.142Z,92.50
2017-07-27T23:46:54.668Z,92.50
2017-07-27T23:49:22.255Z,92.50
2017-07-27T23:51:49.867Z,92.60
2017-07-27T23:54:17.566Z,92.60
2017-07-27T23:56:45.208Z,92.60
2017-07-27T23:59:12.817Z,92.70
